createdAt,value
2022-10-06T00:05:27.240Z,101775.31
2022-10-06T00:10:56.180Z,101764.19
2022-10-06T00:16:23.529Z,101776.47
2022-10-06T00:21:49.440Z,101772.44
2022-10-06T00:27:13.726Z,101788.47
2022-10-06T00:32:39.101Z,101785.38
2022-10-06T00:38:05.446Z,101780.69
2022-10-06T00:43:55.289Z,101772.28
2022-10-06T00:49:22.078Z,101765.25
2022-10-06T00:54:48.332Z,101746.16
2022-10-06T01:00:13.895Z,101746.50
2022-10-06T01:05:43.499Z,101736.97
2022-10-06T01:11:13.242Z,101739.97
2022-10-06T01:16:40.639Z,101738.47
2022-10-06T01:22:08.813Z,101745.00
2022-10-06T01:27:37.152Z,101739.31
2022-10-06T01:33:05.477Z,101738.09
2022-10-06T01:38:33.976Z,101727.44
2022-10-06T01:44:02.223Z,101727.44
2022-10-06T01:49:26.927Z,101724.34
2022-10-06T01:54:51.613Z,101728.28
2022-10-06T02:00:17.293Z,101738.78
2022-10-06T02:05:43.576Z,101741.97
2022-10-06T02:11:12.302Z,101745.63
2022-10-06T02:16:41.878Z,101736.06
2022-10-06T02:22:06.101Z,101747.22
2022-10-06T02:27:29.964Z,101748.25
2022-10-06T02:32:56.459Z,101756.50
2022-10-06T02:38:21.928Z,101761.16
2022-10-06T02:43:47.784Z,101763.69
2022-10-06T02:49:14.456Z,101770.34
2022-10-06T02:54:39.342Z,101771.75
2022-10-06T03:00:04.017Z,101763.88
2022-10-06T03:05:32.061Z,101770.13
2022-10-06T03:11:01.124Z,101781.38
2022-10-06T03:16:32.091Z,101776.50
2022-10-06T03:21:58.819Z,101783.91
2022-10-06T03:27:31.294Z,101789.41
2022-10-06T03:33:01.911Z,101789.91
2022-10-06T03:38:27.756Z,101784.34
2022-10-06T03:43:53.907Z,101789.97
2022-10-06T03:49:18.052Z,101793.16
2022-10-06T03:54:44.388Z,101786.03
2022-10-06T04:00:09.493Z,101791.94
2022-10-06T04:05:36.469Z,101793.66
2022-10-06T04:11:07.964Z,101790.66
2022-10-06T04:16:33.395Z,101793.56
2022-10-06T04:21:58.456Z,101794.31
2022-10-06T04:27:30.862Z,101792.97
2022-10-06T04:33:05.141Z,101786.50
2022-10-06T04:38:30.796Z,101781.28
2022-10-06T04:44:00.816Z,101787.06
2022-10-06T04:49:25.648Z,101772.78
2022-10-06T04:54:53.098Z,101760.50
2022-10-06T05:00:25.440Z,101757.03
2022-10-06T05:05:50.454Z,101769.50
2022-10-06T05:11:15.177Z,101766.75
2022-10-06T05:16:45.221Z,101761.47
2022-10-06T05:22:10.454Z,101765.16
2022-10-06T05:27:35.677Z,101766.31
2022-10-06T05:33:01.283Z,101766.53
2022-10-06T05:38:27.855Z,101774.59
2022-10-06T05:43:53.123Z,101780.19
2022-10-06T05:49:19.150Z,101785.84
2022-10-06T05:54:51.880Z,101784.91
2022-10-06T06:00:17.225Z,101784.19
2022-10-06T06:05:45.972Z,101779.72
2022-10-06T06:11:11.542Z,101786.28
2022-10-06T06:16:37.157Z,101778.56
2022-10-06T06:22:03.168Z,101775.69
2022-10-06T06:27:30.943Z,101771.16
2022-10-06T06:33:00.184Z,101779.19
2022-10-06T06:38:27.337Z,101783.38
2022-10-06T06:43:53.490Z,101783.81
2022-10-06T06:49:26.404Z,101780.50
2022-10-06T06:54:57.225Z,101785.75
2022-10-06T07:00:23.552Z,101783.81
2022-10-06T07:05:48.012Z,101789.72
2022-10-06T07:11:18.337Z,101783.38
2022-10-06T07:17:00.697Z,101778.59
2022-10-06T07:22:46.831Z,101778.00
2022-10-06T07:28:17.237Z,101764.19
2022-10-06T07:33:41.885Z,101774.03
2022-10-06T07:39:06.877Z,101765.53
2022-10-06T07:44:32.994Z,101754.78
2022-10-06T07:49:59.396Z,101765.84
2022-10-06T07:55:25.068Z,101755.97
2022-10-06T08:01:16.398Z,101756.19
2022-10-06T08:14:04.045Z,101756.94
2022-10-06T08:19:30.755Z,101752.72
2022-10-06T08:25:05.774Z,101751.91
2022-10-06T08:30:30.830Z,101751.56
2022-10-06T08:42:34.833Z,101737.53
2022-10-06T08:48:03.885Z,101732.00
2022-10-06T08:53:35.914Z,101733.44
2022-10-06T08:59:04.794Z,101750.88
2022-10-06T09:04:31.906Z,101743.81
2022-10-06T09:16:43.685Z,101741.38
2022-10-06T09:22:16.808Z,101729.19
2022-10-06T09:34:52.248Z,101716.66
2022-10-06T09:40:35.324Z,101707.63
2022-10-06T09:46:21.635Z,101716.88
2022-10-06T09:52:04.192Z,101716.50
2022-10-06T09:57:31.634Z,101716.38
2022-10-06T10:03:01.292Z,101716.63
2022-10-06T10:08:30.789Z,101707.91
2022-10-06T10:13:57.793Z,101697.50
2022-10-06T10:19:28.048Z,101698.56
2022-10-06T10:25:05.533Z,101686.09
2022-10-06T10:30:29.778Z,101685.31
2022-10-06T10:35:57.340Z,101682.59
2022-10-06T10:41:27.647Z,101687.16
2022-10-06T10:46:57.191Z,101679.53
2022-10-06T10:52:30.382Z,101682.31
2022-10-06T10:58:00.665Z,101692.50
2022-10-06T11:03:25.402Z,101680.31
2022-10-06T11:08:59.066Z,101683.34
2022-10-06T11:14:42.409Z,101676.06
2022-10-06T11:20:26.864Z,101673.13
2022-10-06T11:26:04.964Z,101670.56
2022-10-06T11:31:42.447Z,101666.41
2022-10-06T11:37:19.192Z,101673.69
2022-10-06T11:42:51.736Z,101669.50
2022-10-06T11:48:25.826Z,101663.78
2022-10-06T11:53:50.315Z,101662.69
2022-10-06T11:59:31.459Z,101664.19
2022-10-06T12:05:55.351Z,101655.91
2022-10-06T12:11:43.814Z,101660.00
2022-10-06T12:17:19.760Z,101660.00
2022-10-06T12:22:50.120Z,101652.50
2022-10-06T12:28:25.373Z,101652.22
2022-10-06T12:33:50.526Z,101650.16
2022-10-06T12:39:23.577Z,101643.22
2022-10-06T12:44:51.623Z,101637.63
2022-10-06T12:50:21.810Z,101627.25
2022-10-06T12:55:51.885Z,101627.47
2022-10-06T13:01:19.865Z,101623.22
2022-10-06T13:06:50.465Z,101618.91
2022-10-06T13:12:27.456Z,101613.16
2022-10-06T13:17:55.139Z,101607.78
2022-10-06T13:23:25.472Z,101619.09
2022-10-06T13:28:52.893Z,101602.66
2022-10-06T13:34:22.402Z,101601.22
2022-10-06T13:39:48.168Z,101600.84
2022-10-06T13:45:16.205Z,101601.78
2022-10-06T13:50:46.660Z,101594.59
2022-10-06T13:56:38.390Z,101583.09
2022-10-06T14:02:22.837Z,101590.78
2022-10-06T14:07:52.618Z,101600.75
2022-10-06T14:13:19.623Z,101593.81
2022-10-06T14:18:46.842Z,101599.78
2022-10-06T14:24:26.145Z,101590.81
2022-10-06T14:29:51.838Z,101597.59
2022-10-06T14:35:16.001Z,101608.03
2022-10-06T14:40:43.084Z,101606.97
2022-10-06T14:46:10.359Z,101611.75
2022-10-06T14:51:36.940Z,101607.09
2022-10-06T14:57:02.666Z,101621.00
2022-10-06T15:02:27.068Z,101618.91
2022-10-06T15:08:11.757Z,101620.63
2022-10-06T15:13:37.181Z,101627.22
2022-10-06T15:19:05.510Z,101634.94
2022-10-06T15:24:29.456Z,101633.91
2022-10-06T15:29:57.497Z,101638.31
2022-10-06T15:35:23.423Z,101641.00
2022-10-06T15:40:48.020Z,101659.03
2022-10-06T15:46:14.738Z,101653.78
2022-10-06T15:51:47.389Z,101661.41
2022-10-06T15:57:20.336Z,101658.81
2022-10-06T16:02:48.335Z,101663.06
2022-10-06T16:08:12.439Z,101671.44
2022-10-06T16:13:37.380Z,101674.44
2022-10-06T16:19:04.202Z,101668.47
2022-10-06T16:24:28.757Z,101667.94
2022-10-06T16:29:53.846Z,101662.09
2022-10-06T16:35:20.327Z,101666.84
2022-10-06T16:40:54.971Z,101659.34
2022-10-06T16:46:21.220Z,101665.56
2022-10-06T16:51:48.228Z,101667.47
2022-10-06T16:57:12.924Z,101661.22
2022-10-06T17:02:38.751Z,101665.94
2022-10-06T17:08:04.951Z,101660.06
2022-10-06T17:13:28.981Z,101662.19
2022-10-06T17:18:55.145Z,101661.78
2022-10-06T17:24:21.072Z,101675.25
2022-10-06T17:29:45.805Z,101678.22
2022-10-06T17:35:11.643Z,101676.78
2022-10-06T17:40:44.503Z,101673.63
2022-10-06T17:46:13.190Z,101678.06
2022-10-06T17:51:40.793Z,101678.25
2022-10-06T17:57:06.639Z,101680.38
2022-10-06T18:02:31.565Z,101682.13
2022-10-06T18:07:58.733Z,101677.28
2022-10-06T18:13:24.931Z,101669.53
2022-10-06T18:18:51.890Z,101676.03
2022-10-06T18:24:18.310Z,101682.13
2022-10-06T18:29:44.046Z,101685.28
2022-10-06T18:40:55.793Z,101690.56
2022-10-06T18:46:44.614Z,101692.69
2022-10-06T18:52:09.836Z,101687.66
2022-10-06T18:57:34.557Z,101688.94
2022-10-06T19:03:00.895Z,101691.03
2022-10-06T19:08:26.475Z,101697.97
2022-10-06T19:13:53.203Z,101697.97
2022-10-06T19:19:21.977Z,101692.28
2022-10-06T19:24:47.907Z,101692.31
2022-10-06T19:30:14.600Z,101683.47
2022-10-06T19:35:40.023Z,101687.25
2022-10-06T19:41:18.361Z,101693.56
2022-10-06T19:46:43.447Z,101694.44
2022-10-06T19:52:10.851Z,101693.59
2022-10-06T19:57:35.455Z,101697.78
2022-10-06T20:02:59.802Z,101698.19
2022-10-06T20:08:26.270Z,101701.75
2022-10-06T20:13:54.240Z,101704.91
2022-10-06T20:19:19.473Z,101707.44
2022-10-06T20:24:45.276Z,101716.66
2022-10-06T20:30:11.155Z,101710.38
2022-10-06T20:35:36.561Z,101711.41
2022-10-06T20:41:03.099Z,101710.78
2022-10-06T20:46:32.288Z,101717.09
2022-10-06T20:51:57.422Z,101716.66
2022-10-06T20:57:23.448Z,101717.50
2022-10-06T21:02:48.196Z,101706.59
2022-10-06T21:08:13.882Z,101704.88
2022-10-06T21:13:48.451Z,101713.28
2022-10-06T21:19:16.046Z,101699.34
2022-10-06T21:24:40.225Z,101708.16
2022-10-06T21:30:10.219Z,101711.94
2022-10-06T21:35:34.126Z,101707.06
2022-10-06T21:41:02.517Z,101705.38
2022-10-06T21:46:29.645Z,101702.66
2022-10-06T21:51:58.370Z,101700.75
2022-10-06T21:57:22.670Z,101703.88
2022-10-06T22:02:48.411Z,101696.31
2022-10-06T22:08:13.402Z,101693.63
2022-10-06T22:13:40.457Z,101692.97
2022-10-06T22:19:08.230Z,101695.03
2022-10-06T22:24:34.237Z,101692.13
2022-10-06T22:29:58.958Z,101691.69
2022-10-06T22:35:27.091Z,101691.69
2022-10-06T22:40:51.780Z,101698.41
2022-10-06T22:46:17.163Z,101695.06
2022-10-06T22:51:56.186Z,101699.25
2022-10-06T22:57:20.840Z,101701.34
2022-10-06T23:02:45.066Z,101692.97
2022-10-06T23:08:10.650Z,101694.41
2022-10-06T23:13:34.671Z,101696.72
2022-10-06T23:18:58.918Z,101694.41
2022-10-06T23:24:26.001Z,101692.06
2022-10-06T23:29:50.485Z,101688.69
2022-10-06T23:35:14.663Z,101689.94
2022-10-06T23:40:40.197Z,101691.56
2022-10-06T23:46:05.375Z,101679.81
2022-10-06T23:51:29.402Z,101669.13
2022-10-06T23:56:56.742Z,101670.97
